createdAt,value
2018-09-17T00:00:58.610Z,14.18
2018-09-17T00:01:58.535Z,14.09
2018-09-17T00:02:58.524Z,14.10
2018-09-17T00:03:58.554Z,14.06
2018-09-17T00:04:58.531Z,14.17
2018-09-17T00:05:58.526Z,14.09
2018-09-17T00:06:58.528Z,14.14
2018-09-17T00:07:58.544Z,14.06
2018-09-17T00:08:58.570Z,14.09
2018-09-17T00:09:58.564Z,13.95
2018-09-17T00:10:58.582Z,13.95
2018-09-17T00:11:58.532Z,14.00
2018-09-17T00:12:58.526Z,14.02
2018-09-17T00:13:58.526Z,13.91
2018-09-17T00:14:58.533Z,13.92
2018-09-17T00:15:58.562Z,13.96
2018-09-17T00:16:58.564Z,13.97
2018-09-17T00:17:58.537Z,13.88
2018-09-17T00:18:58.553Z,14.07
2018-09-17T00:19:58.556Z,14.04
2018-09-17T00:20:58.585Z,14.02
2018-09-17T00:21:58.566Z,13.88
2018-09-17T00:22:58.572Z,13.89
2018-09-17T00:23:58.569Z,13.96
2018-09-17T00:24:58.597Z,13.84
2018-09-17T00:25:58.559Z,13.81
2018-09-17T00:26:58.549Z,13.77
2018-09-17T00:27:58.613Z,13.77
2018-09-17T00:28:58.584Z,13.63
2018-09-17T00:29:58.572Z,13.66
2018-09-17T00:30:58.569Z,13.73
2018-09-17T00:31:58.587Z,13.82
2018-09-17T00:32:58.634Z,13.77
2018-09-17T00:33:58.553Z,13.78
2018-09-17T00:34:58.556Z,13.85
2018-09-17T00:35:58.581Z,13.81
2018-09-17T00:36:58.581Z,13.81
2018-09-17T00:37:58.596Z,13.82
2018-09-17T00:38:58.579Z,13.78
2018-09-17T00:39:58.584Z,13.69
2018-09-17T00:40:58.606Z,13.64
2018-09-17T00:41:58.577Z,13.60
2018-09-17T00:42:58.594Z,13.60
2018-09-17T00:43:58.605Z,13.54
2018-09-17T00:44:58.599Z,13.46
2018-09-17T00:45:58.582Z,13.60
2018-09-17T00:46:58.598Z,13.52
2018-09-17T00:47:58.613Z,13.59
2018-09-17T00:48:58.615Z,13.62
2018-09-17T00:49:58.646Z,13.60
2018-09-17T00:50:58.635Z,13.67
2018-09-17T00:51:58.612Z,13.62
2018-09-17T00:52:58.633Z,13.66
2018-09-17T00:53:58.627Z,13.73
2018-09-17T00:54:58.620Z,13.63
2018-09-17T00:55:58.619Z,13.64
2018-09-17T00:56:58.605Z,13.69
2018-09-17T00:57:58.722Z,13.66
2018-09-17T00:58:58.606Z,13.64
2018-09-17T00:59:58.630Z,13.66
2018-09-17T01:00:58.640Z,13.63
2018-09-17T01:01:58.625Z,13.66
2018-09-17T01:02:58.623Z,13.66
2018-09-17T01:03:58.621Z,13.52
2018-09-17T01:04:58.639Z,13.69
2018-09-17T01:05:58.677Z,13.55
2018-09-17T01:06:58.623Z,13.55
2018-09-17T01:07:58.639Z,13.57
2018-09-17T01:08:58.618Z,13.62
2018-09-17T01:09:58.622Z,13.63
2018-09-17T01:10:58.767Z,13.63
2018-09-17T01:11:58.655Z,13.57
2018-09-17T01:12:58.672Z,13.57
2018-09-17T01:13:58.637Z,13.59
2018-09-17T01:14:58.654Z,13.67
2018-09-17T01:15:58.671Z,13.66
2018-09-17T01:16:58.688Z,13.69
2018-09-17T01:17:58.696Z,13.71
2018-09-17T01:18:58.651Z,13.67
2018-09-17T01:19:58.652Z,13.67
2018-09-17T01:20:58.704Z,13.51
2018-09-17T01:21:58.718Z,13.64
2018-09-17T01:22:58.655Z,13.63
2018-09-17T01:23:58.663Z,13.59
2018-09-17T01:24:58.687Z,13.60
2018-09-17T01:25:58.684Z,13.63
2018-09-17T01:26:58.659Z,13.55
2018-09-17T01:27:58.662Z,13.55
2018-09-17T01:28:58.690Z,13.57
2018-09-17T01:29:58.681Z,13.55
2018-09-17T01:30:58.680Z,13.60
2018-09-17T01:31:58.757Z,13.60
2018-09-17T01:32:58.694Z,13.45
2018-09-17T01:33:58.671Z,13.46
2018-09-17T01:34:58.670Z,13.52
2018-09-17T01:35:58.677Z,13.54
2018-09-17T01:36:58.696Z,13.59
2018-09-17T01:37:58.724Z,13.55
2018-09-17T01:38:58.746Z,13.54
2018-09-17T01:39:58.718Z,13.46
2018-09-17T01:40:58.703Z,13.49
2018-09-17T01:41:58.708Z,13.55
2018-09-17T01:42:58.690Z,13.51
2018-09-17T01:43:58.716Z,13.49
2018-09-17T01:44:58.701Z,13.52
2018-09-17T01:45:58.712Z,13.49
2018-09-17T01:46:58.705Z,13.51
2018-09-17T01:47:58.712Z,13.46
2018-09-17T01:48:58.721Z,13.42
2018-09-17T01:49:58.706Z,13.39
2018-09-17T01:50:58.715Z,13.41
2018-09-17T01:51:58.732Z,13.42
2018-09-17T01:52:58.716Z,13.33
2018-09-17T01:53:58.714Z,13.33
2018-09-17T01:54:58.733Z,13.41
2018-09-17T01:55:58.775Z,13.29
2018-09-17T01:56:58.717Z,13.41
2018-09-17T01:57:58.770Z,13.36
2018-09-17T01:58:58.755Z,13.33
2018-09-17T01:59:58.737Z,13.38
2018-09-17T02:00:58.751Z,13.22
2018-09-17T02:01:58.725Z,13.29
2018-09-17T02:02:58.734Z,13.30
2018-09-17T02:03:58.735Z,13.26
2018-09-17T02:04:58.740Z,13.39
2018-09-17T02:05:58.747Z,13.39
2018-09-17T02:06:58.839Z,13.38
2018-09-17T02:07:58.766Z,13.36
2018-09-17T02:08:58.801Z,13.38
2018-09-17T02:09:58.780Z,13.33
2018-09-17T02:10:58.753Z,13.32
2018-09-17T02:11:58.766Z,13.39
2018-09-17T02:12:58.761Z,13.38
2018-09-17T02:13:58.745Z,13.36
2018-09-17T02:14:58.765Z,13.41
2018-09-17T02:15:58.762Z,13.38
2018-09-17T02:16:58.754Z,13.41
2018-09-17T02:17:58.775Z,13.41
2018-09-17T02:18:58.774Z,13.38
2018-09-17T02:19:58.766Z,13.38
2018-09-17T02:20:58.777Z,13.42
2018-09-17T02:21:58.763Z,13.38
2018-09-17T02:22:58.778Z,13.33
2018-09-17T02:23:58.778Z,13.28
2018-09-17T02:24:58.804Z,13.25
2018-09-17T02:25:58.812Z,13.22
2018-09-17T02:26:58.788Z,13.32
2018-09-17T02:27:58.801Z,13.33
2018-09-17T02:28:58.801Z,13.32
2018-09-17T02:29:58.805Z,13.30
2018-09-17T02:30:58.794Z,13.25
2018-09-17T02:31:58.810Z,13.26
2018-09-17T02:32:58.782Z,13.23
2018-09-17T02:33:58.798Z,13.15
2018-09-17T02:34:58.779Z,13.23
2018-09-17T02:35:58.793Z,13.19
2018-09-17T02:36:58.817Z,13.28
2018-09-17T02:37:58.856Z,13.23
2018-09-17T02:38:58.809Z,13.23
2018-09-17T02:39:58.821Z,13.30
2018-09-17T02:40:58.819Z,13.28
2018-09-17T02:41:58.815Z,13.23
2018-09-17T02:42:58.798Z,13.29
2018-09-17T02:43:58.820Z,13.30
2018-09-17T02:44:58.841Z,13.19
2018-09-17T02:45:58.831Z,13.19
2018-09-17T02:46:58.839Z,13.14
2018-09-17T02:47:58.846Z,13.14
2018-09-17T02:48:58.813Z,13.22
2018-09-17T02:49:58.817Z,13.08
2018-09-17T02:50:58.830Z,13.04
2018-09-17T02:51:58.848Z,13.07
2018-09-17T02:52:58.825Z,13.12
2018-09-17T02:53:58.832Z,13.20
2018-09-17T02:54:58.839Z,13.07
2018-09-17T02:55:58.844Z,13.08
2018-09-17T02:56:58.825Z,13.04
2018-09-17T02:57:58.831Z,13.01
2018-09-17T02:58:58.855Z,13.07
2018-09-17T02:59:58.847Z,13.04
2018-09-17T03:00:58.844Z,13.07
2018-09-17T03:01:58.839Z,13.03
2018-09-17T03:02:58.870Z,13.07
2018-09-17T03:03:58.863Z,13.01
2018-09-17T03:04:58.867Z,13.00
2018-09-17T03:05:58.851Z,13.00
2018-09-17T03:06:58.874Z,13.01
2018-09-17T03:07:58.857Z,12.97
2018-09-17T03:08:58.861Z,12.86
2018-09-17T03:09:58.895Z,12.95
2018-09-17T03:10:58.888Z,12.93
2018-09-17T03:11:58.889Z,12.97
2018-09-17T03:12:58.883Z,12.93
2018-09-17T03:13:58.873Z,12.90
2018-09-17T03:14:58.885Z,12.96
2018-09-17T03:15:58.904Z,12.93
2018-09-17T03:16:58.866Z,12.78
2018-09-17T03:17:58.887Z,12.85
2018-09-17T03:18:58.910Z,12.85
2018-09-17T03:19:58.874Z,12.83
2018-09-17T03:20:58.869Z,12.95
2018-09-17T03:21:58.879Z,12.96
2018-09-17T03:22:58.886Z,12.95
2018-09-17T03:23:58.882Z,12.90
2018-09-17T03:24:58.882Z,12.93
2018-09-17T03:25:58.886Z,12.89
2018-09-17T03:26:58.895Z,12.87
2018-09-17T03:27:58.893Z,12.79
2018-09-17T03:28:58.898Z,12.83
2018-09-17T03:29:58.917Z,12.89
2018-09-17T03:30:58.880Z,12.90
2018-09-17T03:31:58.915Z,12.87
2018-09-17T03:32:58.892Z,12.86
2018-09-17T03:33:58.924Z,12.92
2018-09-17T03:34:58.881Z,12.83
2018-09-17T03:35:58.890Z,12.77
2018-09-17T03:36:58.886Z,12.82
2018-09-17T03:37:58.899Z,12.75
2018-09-17T03:38:58.918Z,12.75
2018-09-17T03:39:58.949Z,12.74
2018-09-17T03:40:58.933Z,12.75
2018-09-17T03:41:58.922Z,12.82
2018-09-17T03:42:58.915Z,12.78
2018-09-17T03:43:58.942Z,12.71
2018-09-17T03:44:58.932Z,12.72
2018-09-17T03:45:58.920Z,12.70
2018-09-17T03:46:58.929Z,12.77
2018-09-17T03:47:58.951Z,12.72
2018-09-17T03:48:58.938Z,12.78
2018-09-17T03:49:58.955Z,12.75
2018-09-17T03:50:58.923Z,12.85
2018-09-17T03:51:58.923Z,12.85
2018-09-17T03:52:58.920Z,12.71
2018-09-17T03:53:58.939Z,12.70
2018-09-17T03:54:58.924Z,12.78
2018-09-17T03:55:58.957Z,12.85
2018-09-17T03:56:58.941Z,12.74
2018-09-17T03:57:58.946Z,12.78
2018-09-17T03:58:58.943Z,12.70
2018-09-17T03:59:58.954Z,12.78
2018-09-17T04:00:58.943Z,12.68
2018-09-17T04:01:58.940Z,12.74
2018-09-17T04:02:58.959Z,12.67
2018-09-17T04:03:58.968Z,12.59
2018-09-17T04:04:58.954Z,12.56
2018-09-17T04:05:58.967Z,12.67
2018-09-17T04:06:58.951Z,12.45
2018-09-17T04:07:58.966Z,12.59
2018-09-17T04:08:58.991Z,12.56
2018-09-17T04:09:58.968Z,12.49
2018-09-17T04:10:58.976Z,12.64
2018-09-17T04:11:58.953Z,12.53
2018-09-17T04:12:58.960Z,12.68
2018-09-17T04:13:58.948Z,12.53
2018-09-17T04:14:58.956Z,12.59
2018-09-17T04:15:58.963Z,12.59
2018-09-17T04:16:58.987Z,12.68
2018-09-17T04:17:58.963Z,12.53
2018-09-17T04:18:58.965Z,12.56
2018-09-17T04:19:58.999Z,12.65
2018-09-17T04:20:58.970Z,12.59
2018-09-17T04:21:58.983Z,12.71
2018-09-17T04:22:58.976Z,12.68
2018-09-17T04:23:58.999Z,12.82
2018-09-17T04:24:59.011Z,12.75
2018-09-17T04:25:59.013Z,12.75
2018-09-17T04:26:59.042Z,12.71
2018-09-17T04:27:59.026Z,12.71
2018-09-17T04:28:58.991Z,12.72
2018-09-17T04:29:59.015Z,12.65
2018-09-17T04:30:58.992Z,12.67
2018-09-17T04:31:59.042Z,12.74
2018-09-17T04:32:59.041Z,12.75
2018-09-17T04:33:59.020Z,12.83
2018-09-17T04:34:58.999Z,12.75
2018-09-17T04:35:58.994Z,12.82
2018-09-17T04:36:58.980Z,12.83
2018-09-17T04:37:58.991Z,12.74
2018-09-17T04:38:58.997Z,12.85
2018-09-17T04:39:59.007Z,12.83
2018-09-17T04:40:59.007Z,12.77
2018-09-17T04:41:59.024Z,12.95
2018-09-17T04:42:59.011Z,12.79
2018-09-17T04:43:59.063Z,12.74
2018-09-17T04:44:59.025Z,12.72
2018-09-17T04:45:59.019Z,12.75
2018-09-17T04:46:59.041Z,12.72
2018-09-17T04:47:59.029Z,12.75
2018-09-17T04:48:59.033Z,12.72
2018-09-17T04:49:59.054Z,12.71
2018-09-17T04:50:59.019Z,12.68
2018-09-17T04:51:59.035Z,12.72
2018-09-17T04:52:59.010Z,12.72
2018-09-17T04:53:59.023Z,12.72
2018-09-17T04:54:59.091Z,12.85
2018-09-17T04:55:59.048Z,12.75
2018-09-17T04:56:59.051Z,12.75
2018-09-17T04:57:59.040Z,12.85
2018-09-17T04:58:59.073Z,12.86
2018-09-17T04:59:59.055Z,12.85
2018-09-17T05:00:59.031Z,12.77
2018-09-17T05:01:59.050Z,12.78
2018-09-17T05:02:59.037Z,12.89
2018-09-17T05:03:59.058Z,12.87
2018-09-17T05:04:59.160Z,12.77
2018-09-17T05:05:59.068Z,12.90
2018-09-17T05:06:59.032Z,12.90
2018-09-17T05:07:59.073Z,12.85
2018-09-17T05:08:59.071Z,12.87
2018-09-17T05:09:59.050Z,12.89
2018-09-17T05:10:59.050Z,12.97
2018-09-17T05:11:59.049Z,12.77
2018-09-17T05:12:59.107Z,12.82
2018-09-17T05:13:59.063Z,12.87
2018-09-17T05:14:59.071Z,12.93
2018-09-17T05:15:59.074Z,12.90
2018-09-17T05:16:59.104Z,12.90
2018-09-17T05:17:59.086Z,12.95
2018-09-17T05:18:59.063Z,13.01
2018-09-17T05:19:59.064Z,13.04
2018-09-17T05:20:59.062Z,13.14
2018-09-17T05:21:59.072Z,12.95
2018-09-17T05:22:59.076Z,13.11
2018-09-17T05:23:59.086Z,13.04
2018-09-17T05:24:59.096Z,13.04
2018-09-17T05:25:59.113Z,13.04
2018-09-17T05:26:59.094Z,13.05
2018-09-17T05:27:59.112Z,13.03
2018-09-17T05:28:59.102Z,13.07
2018-09-17T05:29:59.079Z,13.19
2018-09-17T05:30:59.159Z,13.19
2018-09-17T05:31:59.108Z,13.11
2018-09-17T05:32:59.137Z,13.20
2018-09-17T05:33:59.131Z,13.17
2018-09-17T05:34:59.124Z,13.14
2018-09-17T05:35:59.105Z,13.25
2018-09-17T05:36:59.223Z,13.26
2018-09-17T05:37:59.091Z,13.33
2018-09-17T05:38:59.092Z,13.32
2018-09-17T05:39:59.104Z,13.36
2018-09-17T05:40:59.131Z,13.38
2018-09-17T05:41:59.135Z,13.44
2018-09-17T05:42:59.151Z,13.46
2018-09-17T05:43:59.140Z,13.54
2018-09-17T05:44:59.137Z,13.48
2018-09-17T05:45:59.138Z,13.54
2018-09-17T05:46:59.124Z,13.67
2018-09-17T05:47:59.137Z,13.55
2018-09-17T05:48:59.116Z,13.66
2018-09-17T05:49:59.121Z,13.66
2018-09-17T05:50:59.137Z,13.64
2018-09-17T05:51:59.126Z,13.78
2018-09-17T05:52:59.157Z,13.82
2018-09-17T05:53:59.182Z,13.92
2018-09-17T05:54:59.237Z,13.88
2018-09-17T05:55:59.151Z,14.03
2018-09-17T05:56:59.218Z,13.99
2018-09-17T05:57:59.122Z,14.15
2018-09-17T05:58:59.172Z,14.10
2018-09-17T05:59:59.167Z,14.21
2018-09-17T06:00:59.155Z,14.24
2018-09-17T06:01:59.174Z,14.40
2018-09-17T06:02:59.170Z,14.40
2018-09-17T06:03:59.144Z,14.40
2018-09-17T06:04:59.211Z,14.51
2018-09-17T06:05:59.179Z,14.60
2018-09-17T06:06:59.291Z,14.61
2018-09-17T06:07:59.179Z,14.73
2018-09-17T06:08:59.262Z,14.81
2018-09-17T06:09:59.164Z,14.73
2018-09-17T06:10:59.217Z,14.84
2018-09-17T06:11:59.224Z,14.91
2018-09-17T06:12:59.222Z,15.01
2018-09-17T06:13:59.172Z,15.06
2018-09-17T06:14:59.180Z,15.13
2018-09-17T06:15:59.159Z,15.27
2018-09-17T06:16:59.184Z,15.34
2018-09-17T06:17:59.320Z,15.35
2018-09-17T06:18:59.237Z,15.27
2018-09-17T06:19:59.174Z,15.17
2018-09-17T06:20:59.224Z,15.19
2018-09-17T06:21:59.214Z,15.21
2018-09-17T06:22:59.201Z,15.35
2018-09-17T06:23:59.230Z,15.49
2018-09-17T06:24:59.210Z,15.54
2018-09-17T06:25:59.229Z,15.60
2018-09-17T06:26:59.198Z,15.62
2018-09-17T06:27:59.300Z,16.01
2018-09-17T06:28:59.272Z,16.30
2018-09-17T06:29:59.219Z,16.76
2018-09-17T06:30:59.720Z,17.07
2018-09-17T06:31:59.192Z,17.38
2018-09-17T06:32:59.205Z,17.66
2018-09-17T06:34:00.240Z,17.96
2018-09-17T06:34:59.233Z,17.90
2018-09-17T06:35:59.237Z,18.03
2018-09-17T06:36:59.359Z,18.23
2018-09-17T06:37:59.225Z,17.99
2018-09-17T06:38:59.469Z,17.75
2018-09-17T06:39:59.217Z,17.75
2018-09-17T06:40:59.218Z,17.82
2018-09-17T06:41:59.252Z,17.84
2018-09-17T06:42:59.351Z,18.03
2018-09-17T06:43:59.372Z,18.15
2018-09-17T06:44:59.338Z,18.47
2018-09-17T06:45:59.719Z,19.48
2018-09-17T06:46:59.476Z,20.36
2018-09-17T06:47:59.588Z,20.89
2018-09-17T06:48:59.425Z,21.09
2018-09-17T06:49:59.228Z,20.55
2018-09-17T06:50:59.318Z,21.09
2018-09-17T06:51:59.260Z,20.95
2018-09-17T06:52:59.335Z,20.98
2018-09-17T06:53:59.231Z,21.24
2018-09-17T06:54:59.298Z,21.52
2018-09-17T06:55:59.247Z,21.96
2018-09-17T06:56:59.305Z,22.47
2018-09-17T06:57:59.282Z,22.47
2018-09-17T06:58:59.392Z,22.85
2018-09-17T06:59:59.287Z,23.35
2018-09-17T07:00:59.275Z,23.93
2018-09-17T07:01:59.529Z,23.93
2018-09-17T07:02:59.299Z,24.22
2018-09-17T07:03:59.286Z,24.52
2018-09-17T07:04:59.316Z,24.24
2018-09-17T07:05:59.291Z,24.08
2018-09-17T07:06:59.323Z,23.78
2018-09-17T07:07:59.291Z,23.36
2018-09-17T07:08:59.281Z,23.61
2018-09-17T07:09:59.287Z,23.33
2018-09-17T07:10:59.295Z,22.80
2018-09-17T07:11:59.347Z,22.94
2018-09-17T07:12:59.398Z,23.20
2018-09-17T07:13:59.306Z,23.51
2018-09-17T07:14:59.357Z,23.68
2018-09-17T07:15:59.341Z,23.85
2018-09-17T07:16:59.396Z,24.27
2018-09-17T07:18:00.368Z,24.06
2018-09-17T07:18:59.404Z,24.20
2018-09-17T07:19:59.392Z,24.45
2018-09-17T07:20:59.438Z,24.65
2018-09-17T07:21:59.411Z,24.87
2018-09-17T07:22:59.398Z,24.50
2018-09-17T07:23:59.365Z,24.58
2018-09-17T07:24:59.383Z,24.64
2018-09-17T07:25:59.387Z,24.46
2018-09-17T07:27:03.487Z,24.95
2018-09-17T07:27:59.494Z,24.64
2018-09-17T07:28:59.443Z,24.62
2018-09-17T07:29:59.640Z,24.68
2018-09-17T07:30:59.535Z,25.10
2018-09-17T07:31:59.416Z,25.09
2018-09-17T07:32:59.538Z,25.64
2018-09-17T07:33:59.448Z,25.92
2018-09-17T07:34:59.468Z,26.17
2018-09-17T07:35:59.473Z,26.25
2018-09-17T07:36:59.442Z,26.36
2018-09-17T07:37:59.463Z,26.09
2018-09-17T07:38:59.457Z,25.91
2018-09-17T07:40:00.435Z,25.82
2018-09-17T07:40:59.485Z,25.88
2018-09-17T07:41:59.522Z,25.82
2018-09-17T07:42:59.555Z,25.73
2018-09-17T07:43:59.531Z,25.99
2018-09-17T07:44:59.515Z,25.85
2018-09-17T07:45:59.518Z,26.32
2018-09-17T07:46:59.551Z,25.98
2018-09-17T07:48:00.396Z,26.43
2018-09-17T07:48:59.638Z,25.83
2018-09-17T07:49:59.643Z,26.13
2018-09-17T07:50:59.783Z,26.07
2018-09-17T07:51:59.633Z,25.87
2018-09-17T07:52:59.746Z,26.37
2018-09-17T07:53:59.594Z,26.37
2018-09-17T07:54:59.609Z,26.44
2018-09-17T07:55:59.588Z,26.77
2018-09-17T07:56:59.592Z,27.19
2018-09-17T07:57:59.648Z,27.10
2018-09-17T07:58:59.605Z,26.91
2018-09-17T07:59:59.753Z,27.13
2018-09-17T08:00:59.698Z,27.19
2018-09-17T08:02:00.314Z,27.36
2018-09-17T08:02:59.647Z,26.82
2018-09-17T08:03:59.662Z,26.85
2018-09-17T08:04:59.667Z,26.87
2018-09-17T08:05:59.712Z,27.49
2018-09-17T08:06:59.690Z,27.75
2018-09-17T08:08:00.284Z,27.74
2018-09-17T08:08:59.703Z,27.27
2018-09-17T08:09:59.811Z,26.84
2018-09-17T08:10:59.766Z,26.60
2018-09-17T08:11:59.806Z,26.72
2018-09-17T08:12:59.846Z,26.70
2018-09-17T08:13:59.749Z,26.57
2018-09-17T08:14:59.745Z,26.39
2018-09-17T08:15:59.796Z,26.17
2018-09-17T08:16:59.798Z,26.45
2018-09-17T08:17:59.785Z,26.43
2018-09-17T08:18:59.777Z,26.17
2018-09-17T08:19:59.827Z,25.85
2018-09-17T08:20:59.853Z,25.95
2018-09-17T08:21:59.786Z,25.91
2018-09-17T08:22:59.822Z,25.94
2018-09-17T08:23:59.893Z,25.42
2018-09-17T08:24:59.884Z,25.06
2018-09-17T08:25:59.979Z,25.13
2018-09-17T08:26:59.902Z,25.24
2018-09-17T08:27:59.894Z,25.09
2018-09-17T08:28:59.900Z,25.50
2018-09-17T08:29:59.946Z,25.75
2018-09-17T08:30:59.918Z,26.25
2018-09-17T08:31:59.972Z,26.10
2018-09-17T08:32:59.910Z,26.21
2018-09-17T08:34:01.066Z,25.80
2018-09-17T08:34:59.990Z,25.79
2018-09-17T08:36:00.032Z,25.62
2018-09-17T08:37:00.234Z,25.64
2018-09-17T08:38:00.926Z,25.57
2018-09-17T08:38:59.988Z,25.72
2018-09-17T08:39:59.948Z,25.79
2018-09-17T08:41:00.011Z,25.87
2018-09-17T08:42:00.122Z,26.10
2018-09-17T08:43:00.036Z,26.07
2018-09-17T08:44:00.231Z,25.92
2018-09-17T08:45:00.035Z,25.94
2018-09-17T08:46:00.052Z,26.32
2018-09-17T08:47:00.192Z,27.12
2018-09-17T08:48:00.182Z,27.62
2018-09-17T08:49:00.484Z,27.84
2018-09-17T08:50:00.769Z,27.74
2018-09-17T08:51:00.202Z,27.44
2018-09-17T08:52:00.226Z,27.22
2018-09-17T08:53:00.105Z,27.50
2018-09-17T08:54:00.128Z,27.57
2018-09-17T08:55:00.138Z,27.65
2018-09-17T08:56:00.220Z,27.87
2018-09-17T08:57:00.193Z,27.92
2018-09-17T08:58:00.602Z,28.41
2018-09-17T08:59:00.351Z,29.37
2018-09-17T09:00:00.328Z,29.16
2018-09-17T09:01:00.309Z,29.05
2018-09-17T09:02:00.285Z,29.24
2018-09-17T09:03:00.197Z,29.19
2018-09-17T09:04:00.265Z,28.71
2018-09-17T09:05:00.302Z,28.61
2018-09-17T09:06:00.313Z,28.58
2018-09-17T09:07:00.654Z,28.48
2018-09-17T09:08:00.322Z,28.29
2018-09-17T09:09:00.282Z,28.83
2018-09-17T09:10:00.349Z,29.24
2018-09-17T09:11:00.292Z,29.19
2018-09-17T09:12:00.312Z,29.08
2018-09-17T09:13:00.347Z,29.21
2018-09-17T09:14:00.270Z,29.16
2018-09-17T09:15:00.370Z,29.24
2018-09-17T09:16:00.318Z,28.81
2018-09-17T09:17:00.317Z,28.89
2018-09-17T09:18:00.386Z,29.21
2018-09-17T09:19:22.328Z,29.36
2018-09-17T09:20:00.431Z,29.52
2018-09-17T09:21:00.945Z,29.53
2018-09-17T09:22:00.541Z,29.53
2018-09-17T09:23:01.334Z,29.19
2018-09-17T09:24:00.444Z,29.39
2018-09-17T09:25:00.624Z,28.95
2018-09-17T09:26:00.486Z,29.06
2018-09-17T09:27:00.478Z,29.30
2018-09-17T09:28:00.586Z,29.49
2018-09-17T09:29:00.550Z,29.16
2018-09-17T09:30:00.952Z,28.95
2018-09-17T09:32:00.598Z,29.26
2018-09-17T09:33:00.551Z,28.89
2018-09-17T09:34:00.541Z,28.62
2018-09-17T09:35:00.636Z,28.66
2018-09-17T09:36:01.840Z,28.70
2018-09-17T09:37:00.627Z,29.05
2018-09-17T09:38:00.584Z,29.41
2018-09-17T09:39:00.754Z,29.65
2018-09-17T09:40:00.654Z,30.24
2018-09-17T09:41:00.716Z,29.61
2018-09-17T09:42:00.694Z,29.52
2018-09-17T09:43:00.682Z,29.39
2018-09-17T09:44:00.666Z,29.78
2018-09-17T09:45:00.741Z,30.08
2018-09-17T09:46:00.818Z,30.29
2018-09-17T09:47:00.704Z,30.24
2018-09-17T09:48:00.846Z,29.83
2018-09-17T09:49:01.770Z,29.58
2018-09-17T09:50:01.685Z,29.15
2018-09-17T09:51:00.798Z,29.02
2018-09-17T09:52:00.796Z,29.09
2018-09-17T09:53:00.822Z,29.23
2018-09-17T09:54:00.838Z,29.57
2018-09-17T09:55:00.953Z,29.90
2018-09-17T09:56:00.876Z,29.14
2018-09-17T09:57:00.994Z,28.98
2018-09-17T09:58:03.607Z,28.41
2018-09-17T09:59:01.017Z,28.25
2018-09-17T10:00:00.900Z,28.52
2018-09-17T10:01:01.519Z,27.88
2018-09-17T10:02:00.917Z,28.36
2018-09-17T10:03:01.007Z,28.83
2018-09-17T10:04:00.942Z,28.92
2018-09-17T10:05:01.049Z,29.18
2018-09-17T10:06:01.004Z,28.85
2018-09-17T10:07:01.182Z,29.05
2018-09-17T10:08:01.060Z,28.93
2018-09-17T10:09:01.030Z,28.93
2018-09-17T10:10:01.053Z,28.55
2018-09-17T10:11:01.025Z,28.96
2018-09-17T10:12:01.176Z,29.09
2018-09-17T10:13:01.272Z,29.41
2018-09-17T10:14:01.078Z,29.95
2018-09-17T10:15:01.170Z,30.13
2018-09-17T10:16:08.873Z,30.10
2018-09-17T10:17:01.311Z,29.89
2018-09-17T10:18:01.118Z,29.82
2018-09-17T10:19:01.099Z,29.61
2018-09-17T10:20:01.143Z,29.37
2018-09-17T10:21:01.161Z,29.49
2018-09-17T10:22:01.174Z,29.18
2018-09-17T10:23:01.161Z,29.18
2018-09-17T10:24:01.204Z,28.98
2018-09-17T10:25:01.194Z,29.19
2018-09-17T10:26:01.203Z,29.33
2018-09-17T10:27:01.211Z,28.68
2018-09-17T10:28:01.351Z,28.56
2018-09-17T10:29:01.223Z,28.12
2018-09-17T10:30:01.321Z,28.85
2018-09-17T10:31:01.279Z,29.27
2018-09-17T10:32:01.983Z,29.52
2018-09-17T10:33:01.352Z,29.63
2018-09-17T10:34:01.322Z,29.64
2018-09-17T10:35:01.358Z,29.97
2018-09-17T10:36:01.351Z,30.43
2018-09-17T10:37:01.343Z,30.79
2018-09-17T10:38:01.514Z,30.77
2018-09-17T10:39:01.404Z,30.91
2018-09-17T10:40:01.430Z,31.06
2018-09-17T10:41:01.456Z,31.21
2018-09-17T10:42:04.043Z,31.02
2018-09-17T10:43:01.499Z,31.20
2018-09-17T10:44:01.514Z,31.39
2018-09-17T10:45:01.509Z,31.23
2018-09-17T10:46:01.494Z,31.34
2018-09-17T10:47:01.559Z,30.89
2018-09-17T10:48:01.555Z,30.88
2018-09-17T10:49:01.578Z,31.01
2018-09-17T10:50:01.571Z,31.58
2018-09-17T10:51:01.595Z,31.72
2018-09-17T10:52:01.619Z,31.56
2018-09-17T10:53:01.689Z,31.84
2018-09-17T10:54:01.664Z,32.30
2018-09-17T10:55:01.679Z,32.47
2018-09-17T10:56:01.672Z,32.48
2018-09-17T10:57:01.672Z,31.56
2018-09-17T10:58:01.648Z,31.17
2018-09-17T10:59:02.517Z,31.26
2018-09-17T11:03:34.756Z,29.49
2018-09-17T11:04:34.782Z,29.09
2018-09-17T11:05:34.789Z,28.96
2018-09-17T11:06:36.209Z,29.37
2018-09-17T11:07:34.813Z,30.08
2018-09-17T11:08:34.812Z,30.16
2018-09-17T11:09:34.812Z,29.74
2018-09-17T11:10:34.924Z,29.52
2018-09-17T11:11:34.848Z,29.49
2018-09-17T11:12:34.855Z,29.73
2018-09-17T11:13:34.923Z,29.95
2018-09-17T11:14:34.902Z,29.57
2018-09-17T11:15:36.018Z,29.30
2018-09-17T11:16:34.987Z,29.58
2018-09-17T11:17:35.022Z,30.11
2018-09-17T11:18:35.005Z,30.27
2018-09-17T11:19:35.259Z,29.98
2018-09-17T11:20:35.037Z,30.29
2018-09-17T11:21:35.003Z,30.20
2018-09-17T11:22:35.013Z,30.46
2018-09-17T11:23:35.069Z,29.95
2018-09-17T11:24:35.070Z,29.52
2018-09-17T11:25:35.100Z,29.37
2018-09-17T11:26:35.230Z,28.77
2018-09-17T11:27:35.115Z,28.30
2018-09-17T11:28:38.837Z,28.40
2018-09-17T11:30:50.135Z,27.92
2018-09-17T11:31:35.226Z,27.99
2018-09-17T11:35:07.510Z,27.81
2018-09-17T11:36:07.556Z,27.62
2018-09-17T11:37:10.543Z,27.59
2018-09-17T11:38:09.190Z,27.67
2018-09-17T11:39:10.822Z,27.65
2018-09-17T11:40:08.234Z,27.62
2018-09-17T11:41:07.311Z,27.70
2018-09-17T11:42:07.304Z,27.57
2018-09-17T11:43:07.312Z,27.34
2018-09-17T11:45:41.018Z,27.17
2018-09-17T11:46:41.295Z,27.27
2018-09-17T11:47:42.540Z,27.39
2018-09-17T11:48:42.237Z,27.34
2018-09-17T11:52:14.048Z,26.85
2018-09-17T11:53:14.448Z,27.02
2018-09-17T11:54:13.972Z,27.06
2018-09-17T11:55:14.482Z,27.03
2018-09-17T11:57:15.002Z,27.06
2018-09-17T11:58:14.491Z,26.89
2018-09-17T11:59:13.741Z,26.73
2018-09-17T12:00:13.609Z,26.62
2018-09-17T12:01:14.551Z,26.85
2018-09-17T12:02:14.953Z,26.85
2018-09-17T12:03:14.592Z,27.02
2018-09-17T12:04:29.888Z,26.87
2018-09-17T12:05:14.531Z,26.76
2018-09-17T12:06:13.596Z,26.66
2018-09-17T12:07:13.623Z,26.84
2018-09-17T12:08:13.578Z,26.63
2018-09-17T12:09:13.667Z,26.82
2018-09-17T12:10:13.636Z,27.13
2018-09-17T12:11:13.647Z,27.22
2018-09-17T12:12:13.664Z,27.28
2018-09-17T12:13:13.677Z,27.47
2018-09-17T12:14:13.735Z,27.44
2018-09-17T12:15:13.759Z,27.39
2018-09-17T12:16:13.698Z,27.46
2018-09-17T12:17:13.701Z,27.32
2018-09-17T12:18:13.810Z,27.27
2018-09-17T12:19:13.669Z,27.12
2018-09-17T12:20:13.761Z,27.06
2018-09-17T12:21:13.670Z,26.84
2018-09-17T12:22:13.788Z,27.12
2018-09-17T12:23:13.774Z,27.24
2018-09-17T12:24:13.798Z,27.32
2018-09-17T12:25:13.734Z,27.47
2018-09-17T12:26:13.800Z,27.18
2018-09-17T12:27:13.715Z,27.13
2018-09-17T12:28:13.760Z,27.06
2018-09-17T12:29:13.781Z,27.07
2018-09-17T12:30:13.766Z,27.06
2018-09-17T12:31:13.787Z,27.12
2018-09-17T12:32:13.809Z,27.24
2018-09-17T12:33:13.814Z,27.14
2018-09-17T12:34:13.809Z,27.18
2018-09-17T12:35:13.921Z,27.19
2018-09-17T12:36:13.811Z,27.25
2018-09-17T12:37:13.844Z,27.22
2018-09-17T12:38:13.806Z,26.94
2018-09-17T12:39:13.816Z,27.03
2018-09-17T12:40:13.825Z,27.12
2018-09-17T12:41:13.809Z,27.28
2018-09-17T12:42:13.984Z,27.10
2018-09-17T12:43:13.871Z,26.87
2018-09-17T12:44:13.885Z,26.89
2018-09-17T12:45:13.867Z,26.92
2018-09-17T12:46:13.918Z,27.03
2018-09-17T12:47:13.907Z,27.10
2018-09-17T12:48:13.927Z,26.87
2018-09-17T12:49:13.842Z,26.85
2018-09-17T12:50:13.904Z,26.65
2018-09-17T12:51:13.883Z,26.65
2018-09-17T12:52:13.866Z,26.81
2018-09-17T12:53:13.878Z,26.70
2018-09-17T12:54:13.933Z,26.62
2018-09-17T12:55:13.917Z,26.87
2018-09-17T12:56:13.904Z,26.88
2018-09-17T12:57:13.953Z,26.94
2018-09-17T12:58:13.936Z,26.99
2018-09-17T12:59:14.047Z,27.04
2018-09-17T13:00:14.362Z,27.03
2018-09-17T13:01:14.176Z,27.02
2018-09-17T13:02:13.986Z,27.09
2018-09-17T13:03:14.038Z,27.06
2018-09-17T13:04:21.648Z,27.07
2018-09-17T13:05:14.517Z,26.95
2018-09-17T13:06:14.349Z,26.84